Lawrence, Kansas
Current Conditions -  °F | °C
As of 9:52 AM on Friday 24 Oct 2014 (Local Time) from KLWC Reporting Station
Haze Haze  
Wind Chill: 15°   Ceiling: 500
Heat Index: 15°   Visibility: 3mi
Dew Point: 14°   Wind: 6mph
Humidity: 93%   Direction: 200°SSW
Pressure: 30.05"   Gusts: NA
Location:  38.97°N, 95.24°W
Report Text: KLWC 241452Z AUTO 20005KT 3SM BR OVC005 15/14 A3005 RMK AO2 SLP176 T01500139 53002
Loading
Personal Weather Stations






























Interactive Weather Map
Tropical Storm Tracking
New forecast layout! Learn more

10-Day Weather Forecast

Advertisements
Track Severe Weather on mobile